Archival Weather

Salzburg

Salzburg, Austria (LOWS)

Report from: Thursday, September 21, 2023 7:20 PM CEST
Current time: Saturday, February 24, 2024 5:04 PM CET

Current weather – Weather history – Daily summaries
Weather forecast

Temperature22.0°C (71.6°F)
Dew point17.0°C (62.6°F)
Winds 4 kts (2.1 m/s, 4.6 mph) West-Northwest (290°)
Visibility6.2 mi. (10 km)
Clouds Few clouds 9,000 ft. (2,743 m)
Altimeter29.56 in.Hg (1001 mB)
Relative humidity73 %
Density altitude1,496 ft. (456 m)
Remarks No significant changes expected in the next two hours
Flight conditions Visual Meteorological Conditions
Raw dataLOWS 211720Z 29004KT 9999 FEW090 22/17 Q1001 NOSIG
An error has occurred. This application may no longer respond until reloaded. Reload 🗙